sensor_id;sensor_type;location;lat;lon;timestamp;temperature;humidity
10051;DHT22;5065;46.942;7.432;2023-05-10T00:02:00;16.20;99.90
10051;DHT22;5065;46.942;7.432;2023-05-10T00:04:27;16.20;99.90
10051;DHT22;5065;46.942;7.432;2023-05-10T00:06:54;16.20;99.90
10051;DHT22;5065;46.942;7.432;2023-05-10T00:09:21;16.20;99.90
10051;DHT22;5065;46.942;7.432;2023-05-10T00:11:48;16.20;99.90
10051;DHT22;5065;46.942;7.432;2023-05-10T00:14:17;16.20;99.90
10051;DHT22;5065;46.942;7.432;2023-05-10T00:16:44;16.20;99.90
10051;DHT22;5065;46.942;7.432;2023-05-10T00:19:11;16.20;99.90
10051;DHT22;5065;46.942;7.432;2023-05-10T00:21:38;16.20;99.90
10051;DHT22;5065;46.942;7.432;2023-05-10T00:24:06;16.20;99.90
10051;DHT22;5065;46.942;7.432;2023-05-10T00:26:33;16.10;99.90
10051;DHT22;5065;46.942;7.432;2023-05-10T00:29:00;16.10;99.90
10051;DHT22;5065;46.942;7.432;2023-05-10T00:31:28;16.10;99.90
10051;DHT22;5065;46.942;7.432;2023-05-10T00:33:55;16.10;99.90
10051;DHT22;5065;46.942;7.432;2023-05-10T00:36:23;16.10;99.90
10051;DHT22;5065;46.942;7.432;2023-05-10T00:38:50;16.00;99.90
10051;DHT22;5065;46.942;7.432;2023-05-10T00:41:17;16.00;99.90
10051;DHT22;5065;46.942;7.432;2023-05-10T00:43:44;16.00;99.90
10051;DHT22;5065;46.942;7.432;2023-05-10T00:46:11;16.00;99.90
10051;DHT22;5065;46.942;7.432;2023-05-10T00:48:40;16.00;99.90
10051;DHT22;5065;46.942;7.432;2023-05-10T00:51:07;16.00;99.90
10051;DHT22;5065;46.942;7.432;2023-05-10T00:53:35;16.00;99.90
10051;DHT22;5065;46.942;7.432;2023-05-10T00:56:02;15.90;99.90
10051;DHT22;5065;46.942;7.432;2023-05-10T00:58:29;16.00;99.90
10051;DHT22;5065;46.942;7.432;2023-05-10T01:00:56;15.90;99.90
10051;DHT22;5065;46.942;7.432;2023-05-10T01:03:25;15.90;99.90
10051;DHT22;5065;46.942;7.432;2023-05-10T01:05:53;15.90;99.90
10051;DHT22;5065;46.942;7.432;2023-05-10T01:08:21;15.90;99.90
10051;DHT22;5065;46.942;7.432;2023-05-10T01:10:48;15.90;99.90
10051;DHT22;5065;46.942;7.432;2023-05-10T01:13:27;15.90;99.90
10051;DHT22;5065;46.942;7.432;2023-05-10T01:15:57;15.90;99.90
10051;DHT22;5065;46.942;7.432;2023-05-10T01:18:26;15.80;99.90
10051;DHT22;5065;46.942;7.432;2023-05-10T01:21:17;15.80;99.90
10051;DHT22;5065;46.942;7.432;2023-05-10T01:24:08;15.80;99.90
10051;DHT22;5065;46.942;7.432;2023-05-10T01:30:15;15.80;99.90
10051;DHT22;5065;46.942;7.432;2023-05-10T01:32:55;15.90;99.90
10051;DHT22;5065;46.942;7.432;2023-05-10T01:35:31;15.90;99.90
10051;DHT22;5065;46.942;7.432;2023-05-10T01:38:04;15.90;99.90
10051;DHT22;5065;46.942;7.432;2023-05-10T01:40:39;15.90;99.90
10051;DHT22;5065;46.942;7.432;2023-05-10T01:43:17;15.90;99.90
10051;DHT22;5065;46.942;7.432;2023-05-10T01:45:55;15.90;99.90
10051;DHT22;5065;46.942;7.432;2023-05-10T01:48:28;15.90;99.90
10051;DHT22;5065;46.942;7.432;2023-05-10T01:50:56;15.90;99.90
10051;DHT22;5065;46.942;7.432;2023-05-10T01:53:25;15.80;99.90
10051;DHT22;5065;46.942;7.432;2023-05-10T01:55:54;15.80;99.90
10051;DHT22;5065;46.942;7.432;2023-05-10T01:58:27;15.70;99.90
10051;DHT22;5065;46.942;7.432;2023-05-10T02:00:55;15.80;99.90
10051;DHT22;5065;46.942;7.432;2023-05-10T02:03:27;15.80;99.90
10051;DHT22;5065;46.942;7.432;2023-05-10T02:05:55;15.70;99.90
10051;DHT22;5065;46.942;7.432;2023-05-10T02:08:23;15.70;99.90
10051;DHT22;5065;46.942;7.432;2023-05-10T02:10:53;15.70;99.90
10051;DHT22;5065;46.942;7.432;2023-05-10T02:13:23;15.70;99.90
10051;DHT22;5065;46.942;7.432;2023-05-10T02:15:51;15.60;99.90
10051;DHT22;5065;46.942;7.432;2023-05-10T02:18:20;15.70;99.90
10051;DHT22;5065;46.942;7.432;2023-05-10T02:20:51;15.70;99.90
10051;DHT22;5065;46.942;7.432;2023-05-10T02:23:20;15.70;99.90
10051;DHT22;5065;46.942;7.432;2023-05-10T02:25:49;15.70;99.90
10051;DHT22;5065;46.942;7.432;2023-05-10T02:28:18;15.70;99.90
10051;DHT22;5065;46.942;7.432;2023-05-10T02:30:47;15.70;99.90
10051;DHT22;5065;46.942;7.432;2023-05-10T02:33:14;15.70;99.90
10051;DHT22;5065;46.942;7.432;2023-05-10T02:35:42;15.70;99.90
10051;DHT22;5065;46.942;7.432;2023-05-10T02:38:11;15.70;99.90
10051;DHT22;5065;46.942;7.432;2023-05-10T02:40:39;15.70;99.90
10051;DHT22;5065;46.942;7.432;2023-05-10T02:43:10;15.60;99.90
10051;DHT22;5065;46.942;7.432;2023-05-10T02:45:40;15.70;99.90
10051;DHT22;5065;46.942;7.432;2023-05-10T02:48:08;15.70;99.90
10051;DHT22;5065;46.942;7.432;2023-05-10T02:50:37;15.70;99.90
10051;DHT22;5065;46.942;7.432;2023-05-10T02:53:11;15.60;99.90
10051;DHT22;5065;46.942;7.432;2023-05-10T02:55:43;15.70;99.90
10051;DHT22;5065;46.942;7.432;2023-05-10T02:58:13;15.70;99.90
10051;DHT22;5065;46.942;7.432;2023-05-10T03:00:40;15.70;99.90
10051;DHT22;5065;46.942;7.432;2023-05-10T03:03:07;15.70;99.90
10051;DHT22;5065;46.942;7.432;2023-05-10T03:05:34;15.70;99.90
10051;DHT22;5065;46.942;7.432;2023-05-10T03:08:01;15.60;99.90
10051;DHT22;5065;46.942;7.432;2023-05-10T03:10:33;15.50;99.90
10051;DHT22;5065;46.942;7.432;2023-05-10T03:13:19;15.50;99.90
10051;DHT22;5065;46.942;7.432;2023-05-10T03:15:56;15.50;99.90
10051;DHT22;5065;46.942;7.432;2023-05-10T03:18:29;15.40;99.90
10051;DHT22;5065;46.942;7.432;2023-05-10T03:21:03;15.30;99.90
10051;DHT22;5065;46.942;7.432;2023-05-10T03:23:35;15.30;99.90
10051;DHT22;5065;46.942;7.432;2023-05-10T03:26:06;15.20;99.90
10051;DHT22;5065;46.942;7.432;2023-05-10T03:28:35;15.20;99.90
10051;DHT22;5065;46.942;7.432;2023-05-10T03:31:03;15.20;99.90
10051;DHT22;5065;46.942;7.432;2023-05-10T03:33:31;15.10;99.90
10051;DHT22;5065;46.942;7.432;2023-05-10T03:35:58;15.20;99.90
10051;DHT22;5065;46.942;7.432;2023-05-10T03:38:25;15.10;99.90
10051;DHT22;5065;46.942;7.432;2023-05-10T03:40:52;15.20;99.90
10051;DHT22;5065;46.942;7.432;2023-05-10T03:43:21;15.20;99.90
10051;DHT22;5065;46.942;7.432;2023-05-10T03:45:48;15.20;99.90
10051;DHT22;5065;46.942;7.432;2023-05-10T03:48:15;15.20;99.90
10051;DHT22;5065;46.942;7.432;2023-05-10T03:50:42;15.10;99.90
10051;DHT22;5065;46.942;7.432;2023-05-10T03:53:09;15.10;99.90
10051;DHT22;5065;46.942;7.432;2023-05-10T03:55:36;15.00;99.90
10051;DHT22;5065;46.942;7.432;2023-05-10T03:58:04;15.10;99.90
10051;DHT22;5065;46.942;7.432;2023-05-10T04:00:32;15.00;99.90
10051;DHT22;5065;46.942;7.432;2023-05-10T04:02:59;15.00;99.90
10051;DHT22;5065;46.942;7.432;2023-05-10T04:05:26;15.00;99.90
10051;DHT22;5065;46.942;7.432;2023-05-10T04:07:54;15.00;99.90
10051;DHT22;5065;46.942;7.432;2023-05-10T04:10:21;15.00;99.90
10051;DHT22;5065;46.942;7.432;2023-05-10T04:12:48;15.00;99.90
10051;DHT22;5065;46.942;7.432;2023-05-10T04:15:15;15.00;99.90
10051;DHT22;5065;46.942;7.432;2023-05-10T04:17:44;14.90;99.90
10051;DHT22;5065;46.942;7.432;2023-05-10T04:20:12;14.90;99.90
10051;DHT22;5065;46.942;7.432;2023-05-10T04:22:39;15.00;99.90
10051;DHT22;5065;46.942;7.432;2023-05-10T04:25:07;14.90;99.90
10051;DHT22;5065;46.942;7.432;2023-05-10T04:27:34;14.90;99.90
10051;DHT22;5065;46.942;7.432;2023-05-10T04:30:02;14.90;99.90
10051;DHT22;5065;46.942;7.432;2023-05-10T04:32:30;14.90;99.90
10051;DHT22;5065;46.942;7.432;2023-05-10T04:34:58;14.90;99.90
10051;DHT22;5065;46.942;7.432;2023-05-10T04:37:25;14.90;99.90
10051;DHT22;5065;46.942;7.432;2023-05-10T04:39:53;14.90;99.90
10051;DHT22;5065;46.942;7.432;2023-05-10T04:42:20;14.90;99.90
10051;DHT22;5065;46.942;7.432;2023-05-10T04:44:47;14.90;99.90
10051;DHT22;5065;46.942;7.432;2023-05-10T04:47:14;14.90;99.90
10051;DHT22;5065;46.942;7.432;2023-05-10T04:49:41;14.80;99.90
10051;DHT22;5065;46.942;7.432;2023-05-10T04:52:10;14.90;99.90
10051;DHT22;5065;46.942;7.432;2023-05-10T04:54:38;14.90;99.90
10051;DHT22;5065;46.942;7.432;2023-05-10T04:57:05;14.90;99.90
10051;DHT22;5065;46.942;7.432;2023-05-10T04:59:32;14.80;99.90
10051;DHT22;5065;46.942;7.432;2023-05-10T05:02:03;14.90;99.90
10051;DHT22;5065;46.942;7.432;2023-05-10T05:04:30;14.90;99.90
10051;DHT22;5065;46.942;7.432;2023-05-10T05:06:57;14.90;99.90
10051;DHT22;5065;46.942;7.432;2023-05-10T05:09:26;14.90;99.90
10051;DHT22;5065;46.942;7.432;2023-05-10T05:11:54;14.90;99.90
10051;DHT22;5065;46.942;7.432;2023-05-10T05:14:21;14.80;99.90
10051;DHT22;5065;46.942;7.432;2023-05-10T05:16:51;14.80;99.90
10051;DHT22;5065;46.942;7.432;2023-05-10T05:19:18;14.90;99.90
10051;DHT22;5065;46.942;7.432;2023-05-10T05:21:45;14.90;99.90
10051;DHT22;5065;46.942;7.432;2023-05-10T05:24:13;14.80;99.90
10051;DHT22;5065;46.942;7.432;2023-05-10T05:26:42;14.90;99.90
10051;DHT22;5065;46.942;7.432;2023-05-10T05:29:09;14.90;99.90
10051;DHT22;5065;46.942;7.432;2023-05-10T05:31:36;14.90;99.90
10051;DHT22;5065;46.942;7.432;2023-05-10T05:34:04;14.90;99.90
10051;DHT22;5065;46.942;7.432;2023-05-10T05:36:31;14.80;99.90
10051;DHT22;5065;46.942;7.432;2023-05-10T05:38:59;14.80;99.90
10051;DHT22;5065;46.942;7.432;2023-05-10T05:41:26;14.80;99.90
10051;DHT22;5065;46.942;7.432;2023-05-10T05:43:55;14.80;99.90
10051;DHT22;5065;46.942;7.432;2023-05-10T05:46:22;14.70;99.90
10051;DHT22;5065;46.942;7.432;2023-05-10T05:48:50;14.70;99.90
10051;DHT22;5065;46.942;7.432;2023-05-10T05:51:17;14.70;99.90
10051;DHT22;5065;46.942;7.432;2023-05-10T05:53:45;14.70;99.90
10051;DHT22;5065;46.942;7.432;2023-05-10T05:56:12;14.70;99.90
10051;DHT22;5065;46.942;7.432;2023-05-10T05:58:40;14.70;99.90
10051;DHT22;5065;46.942;7.432;2023-05-10T06:01:09;14.70;99.90
10051;DHT22;5065;46.942;7.432;2023-05-10T06:03:36;14.70;99.90
10051;DHT22;5065;46.942;7.432;2023-05-10T06:06:04;14.70;99.90
10051;DHT22;5065;46.942;7.432;2023-05-10T06:08:32;14.70;99.90
10051;DHT22;5065;46.942;7.432;2023-05-10T06:10:59;14.70;99.90
10051;DHT22;5065;46.942;7.432;2023-05-10T06:13:27;14.70;99.90
10051;DHT22;5065;46.942;7.432;2023-05-10T06:15:57;14.70;99.90
10051;DHT22;5065;46.942;7.432;2023-05-10T06:18:26;14.70;99.90
10051;DHT22;5065;46.942;7.432;2023-05-10T06:20:57;14.80;99.90
10051;DHT22;5065;46.942;7.432;2023-05-10T06:23:24;14.80;99.90
10051;DHT22;5065;46.942;7.432;2023-05-10T06:25:52;14.80;99.90
10051;DHT22;5065;46.942;7.432;2023-05-10T06:28:19;14.80;99.90
10051;DHT22;5065;46.942;7.432;2023-05-10T06:30:46;14.80;99.90
10051;DHT22;5065;46.942;7.432;2023-05-10T06:33:14;14.90;99.90
10051;DHT22;5065;46.942;7.432;2023-05-10T06:35:43;14.90;99.90
10051;DHT22;5065;46.942;7.432;2023-05-10T06:38:11;14.90;99.90
10051;DHT22;5065;46.942;7.432;2023-05-10T06:40:41;14.90;99.90
10051;DHT22;5065;46.942;7.432;2023-05-10T06:43:08;14.90;99.90
10051;DHT22;5065;46.942;7.432;2023-05-10T06:45:39;15.00;99.90
10051;DHT22;5065;46.942;7.432;2023-05-10T06:48:09;15.00;99.90
10051;DHT22;5065;46.942;7.432;2023-05-10T06:50:37;15.00;99.90
10051;DHT22;5065;46.942;7.432;2023-05-10T06:53:06;15.00;99.90
10051;DHT22;5065;46.942;7.432;2023-05-10T06:55:33;15.10;99.90
10051;DHT22;5065;46.942;7.432;2023-05-10T06:58:00;15.20;99.90
10051;DHT22;5065;46.942;7.432;2023-05-10T07:00:28;15.20;99.90
10051;DHT22;5065;46.942;7.432;2023-05-10T07:02:55;15.30;99.90
10051;DHT22;5065;46.942;7.432;2023-05-10T07:05:22;15.30;99.90
10051;DHT22;5065;46.942;7.432;2023-05-10T07:07:49;15.40;99.90
10051;DHT22;5065;46.942;7.432;2023-05-10T07:10:19;15.30;99.90
10051;DHT22;5065;46.942;7.432;2023-05-10T07:12:46;15.40;99.90
10051;DHT22;5065;46.942;7.432;2023-05-10T07:15:13;15.40;99.90
10051;DHT22;5065;46.942;7.432;2023-05-10T07:17:41;15.40;99.90
10051;DHT22;5065;46.942;7.432;2023-05-10T07:20:09;15.40;99.90
10051;DHT22;5065;46.942;7.432;2023-05-10T07:22:36;15.30;99.90
10051;DHT22;5065;46.942;7.432;2023-05-10T07:25:05;15.30;99.90
10051;DHT22;5065;46.942;7.432;2023-05-10T07:27:34;15.30;99.90
10051;DHT22;5065;46.942;7.432;2023-05-10T07:30:02;15.30;99.90
10051;DHT22;5065;46.942;7.432;2023-05-10T07:32:29;15.30;99.90
10051;DHT22;5065;46.942;7.432;2023-05-10T07:34:57;15.20;99.90
10051;DHT22;5065;46.942;7.432;2023-05-10T07:37:26;15.20;99.90
10051;DHT22;5065;46.942;7.432;2023-05-10T07:39:53;15.20;99.90
10051;DHT22;5065;46.942;7.432;2023-05-10T07:42:22;15.20;99.90
10051;DHT22;5065;46.942;7.432;2023-05-10T07:44:51;15.10;99.90
10051;DHT22;5065;46.942;7.432;2023-05-10T07:47:19;15.10;99.90
10051;DHT22;5065;46.942;7.432;2023-05-10T07:49:47;15.10;99.90
10051;DHT22;5065;46.942;7.432;2023-05-10T07:52:15;15.10;99.90
10051;DHT22;5065;46.942;7.432;2023-05-10T07:54:42;15.10;99.90
10051;DHT22;5065;46.942;7.432;2023-05-10T07:57:10;15.10;99.90
10051;DHT22;5065;46.942;7.432;2023-05-10T07:59:40;15.10;99.90
10051;DHT22;5065;46.942;7.432;2023-05-10T08:02:09;15.10;99.90
10051;DHT22;5065;46.942;7.432;2023-05-10T08:04:36;15.00;99.90
10051;DHT22;5065;46.942;7.432;2023-05-10T08:07:04;15.00;99.90
10051;DHT22;5065;46.942;7.432;2023-05-10T08:09:32;15.00;99.90
10051;DHT22;5065;46.942;7.432;2023-05-10T08:12:00;15.00;99.90
10051;DHT22;5065;46.942;7.432;2023-05-10T08:14:29;15.00;99.90
10051;DHT22;5065;46.942;7.432;2023-05-10T08:16:57;15.00;99.90
10051;DHT22;5065;46.942;7.432;2023-05-10T08:19:27;15.00;99.90
10051;DHT22;5065;46.942;7.432;2023-05-10T08:21:55;14.90;99.90
10051;DHT22;5065;46.942;7.432;2023-05-10T08:24:25;14.90;99.90
10051;DHT22;5065;46.942;7.432;2023-05-10T08:26:55;14.90;99.90
10051;DHT22;5065;46.942;7.432;2023-05-10T08:29:26;14.90;99.90
10051;DHT22;5065;46.942;7.432;2023-05-10T08:31:53;14.90;99.90
10051;DHT22;5065;46.942;7.432;2023-05-10T08:34:21;14.90;99.90
10051;DHT22;5065;46.942;7.432;2023-05-10T08:36:51;15.00;99.90
10051;DHT22;5065;46.942;7.432;2023-05-10T08:39:18;15.00;99.90
10051;DHT22;5065;46.942;7.432;2023-05-10T08:41:47;15.10;99.90
10051;DHT22;5065;46.942;7.432;2023-05-10T08:44:16;15.20;99.90
10051;DHT22;5065;46.942;7.432;2023-05-10T08:46:46;15.30;99.90
10051;DHT22;5065;46.942;7.432;2023-05-10T08:49:17;15.40;99.90
10051;DHT22;5065;46.942;7.432;2023-05-10T08:51:52;15.50;99.90
10051;DHT22;5065;46.942;7.432;2023-05-10T08:54:22;15.60;99.90
10051;DHT22;5065;46.942;7.432;2023-05-10T08:56:50;15.60;99.90
10051;DHT22;5065;46.942;7.432;2023-05-10T08:59:18;15.60;99.90
10051;DHT22;5065;46.942;7.432;2023-05-10T09:01:46;15.60;99.90
10051;DHT22;5065;46.942;7.432;2023-05-10T09:04:15;15.60;99.90
10051;DHT22;5065;46.942;7.432;2023-05-10T09:06:43;15.60;99.90
10051;DHT22;5065;46.942;7.432;2023-05-10T09:09:14;15.60;99.90
10051;DHT22;5065;46.942;7.432;2023-05-10T09:11:42;15.60;99.90
10051;DHT22;5065;46.942;7.432;2023-05-10T09:14:11;15.60;99.90
10051;DHT22;5065;46.942;7.432;2023-05-10T09:16:40;15.70;99.90
10051;DHT22;5065;46.942;7.432;2023-05-10T09:19:08;15.90;99.90
10051;DHT22;5065;46.942;7.432;2023-05-10T09:21:36;16.20;99.90
10051;DHT22;5065;46.942;7.432;2023-05-10T09:24:05;16.60;99.90
10051;DHT22;5065;46.942;7.432;2023-05-10T09:26:35;16.80;99.90
10051;DHT22;5065;46.942;7.432;2023-05-10T09:29:03;17.00;99.90
10051;DHT22;5065;46.942;7.432;2023-05-10T09:31:48;17.00;99.90
10051;DHT22;5065;46.942;7.432;2023-05-10T09:34:19;17.00;99.90
10051;DHT22;5065;46.942;7.432;2023-05-10T09:36:54;16.90;99.90
10051;DHT22;5065;46.942;7.432;2023-05-10T09:39:31;16.80;99.90
10051;DHT22;5065;46.942;7.432;2023-05-10T09:42:02;16.70;99.90
10051;DHT22;5065;46.942;7.432;2023-05-10T09:44:31;16.60;99.90
10051;DHT22;5065;46.942;7.432;2023-05-10T09:46:59;16.50;99.90
10051;DHT22;5065;46.942;7.432;2023-05-10T09:49:27;16.50;99.90
10051;DHT22;5065;46.942;7.432;2023-05-10T09:52:02;16.50;99.90
10051;DHT22;5065;46.942;7.432;2023-05-10T09:54:29;16.40;99.90
10051;DHT22;5065;46.942;7.432;2023-05-10T09:56:57;16.30;99.90
10051;DHT22;5065;46.942;7.432;2023-05-10T09:59:27;16.40;99.90
10051;DHT22;5065;46.942;7.432;2023-05-10T10:01:56;16.30;99.90
10051;DHT22;5065;46.942;7.432;2023-05-10T10:04:25;16.30;99.90
10051;DHT22;5065;46.942;7.432;2023-05-10T10:07:01;16.30;99.90
10051;DHT22;5065;46.942;7.432;2023-05-10T10:09:29;16.20;99.90
10051;DHT22;5065;46.942;7.432;2023-05-10T10:11:57;16.30;99.90
10051;DHT22;5065;46.942;7.432;2023-05-10T10:14:27;16.30;99.90
10051;DHT22;5065;46.942;7.432;2023-05-10T10:16:55;16.40;99.90
10051;DHT22;5065;46.942;7.432;2023-05-10T10:19:23;16.50;99.90
10051;DHT22;5065;46.942;7.432;2023-05-10T10:21:50;16.60;99.90
10051;DHT22;5065;46.942;7.432;2023-05-10T10:24:18;16.70;99.90
10051;DHT22;5065;46.942;7.432;2023-05-10T10:26:46;16.80;99.90
10051;DHT22;5065;46.942;7.432;2023-05-10T10:29:23;16.90;99.90
10051;DHT22;5065;46.942;7.432;2023-05-10T10:31:57;17.30;99.90
10051;DHT22;5065;46.942;7.432;2023-05-10T10:34:30;17.50;99.90
10051;DHT22;5065;46.942;7.432;2023-05-10T10:37:04;17.80;99.90
10051;DHT22;5065;46.942;7.432;2023-05-10T10:39:31;18.10;99.90
10051;DHT22;5065;46.942;7.432;2023-05-10T10:41:59;18.30;99.90
10051;DHT22;5065;46.942;7.432;2023-05-10T10:44:37;18.40;99.90
10051;DHT22;5065;46.942;7.432;2023-05-10T10:47:23;18.60;99.90
10051;DHT22;5065;46.942;7.432;2023-05-10T10:50:04;18.60;99.90
10051;DHT22;5065;46.942;7.432;2023-05-10T10:52:33;18.60;99.90
10051;DHT22;5065;46.942;7.432;2023-05-10T10:55:03;18.60;99.90
10051;DHT22;5065;46.942;7.432;2023-05-10T10:57:43;18.50;99.90
10051;DHT22;5065;46.942;7.432;2023-05-10T11:00:23;18.40;99.90
10051;DHT22;5065;46.942;7.432;2023-05-10T11:02:53;18.30;99.90
10051;DHT22;5065;46.942;7.432;2023-05-10T11:05:25;18.20;99.90
10051;DHT22;5065;46.942;7.432;2023-05-10T11:07:53;18.10;99.90
10051;DHT22;5065;46.942;7.432;2023-05-10T11:10:21;18.10;99.90
10051;DHT22;5065;46.942;7.432;2023-05-10T11:12:52;18.20;99.90
10051;DHT22;5065;46.942;7.432;2023-05-10T11:15:19;18.30;99.90
10051;DHT22;5065;46.942;7.432;2023-05-10T11:17:48;18.30;99.90
10051;DHT22;5065;46.942;7.432;2023-05-10T11:20:19;18.30;99.90
10051;DHT22;5065;46.942;7.432;2023-05-10T11:22:51;18.40;99.90
10051;DHT22;5065;46.942;7.432;2023-05-10T11:25:18;18.40;99.90
10051;DHT22;5065;46.942;7.432;2023-05-10T11:27:47;18.40;99.90
10051;DHT22;5065;46.942;7.432;2023-05-10T11:30:15;18.50;99.90
10051;DHT22;5065;46.942;7.432;2023-05-10T11:32:42;18.50;99.90
10051;DHT22;5065;46.942;7.432;2023-05-10T11:35:10;18.50;99.90
10051;DHT22;5065;46.942;7.432;2023-05-10T11:37:41;18.50;99.90
10051;DHT22;5065;46.942;7.432;2023-05-10T11:40:11;18.60;99.90
10051;DHT22;5065;46.942;7.432;2023-05-10T11:42:38;18.60;99.90
10051;DHT22;5065;46.942;7.432;2023-05-10T11:45:06;18.60;99.90
10051;DHT22;5065;46.942;7.432;2023-05-10T11:47:34;18.60;99.90
10051;DHT22;5065;46.942;7.432;2023-05-10T11:50:03;18.60;99.90
10051;DHT22;5065;46.942;7.432;2023-05-10T11:52:35;18.70;99.90
10051;DHT22;5065;46.942;7.432;2023-05-10T11:55:05;18.70;99.90
10051;DHT22;5065;46.942;7.432;2023-05-10T11:57:32;18.80;99.90
10051;DHT22;5065;46.942;7.432;2023-05-10T11:59:59;18.80;99.90
10051;DHT22;5065;46.942;7.432;2023-05-10T12:02:29;18.90;99.90
10051;DHT22;5065;46.942;7.432;2023-05-10T12:04:57;18.90;99.90
10051;DHT22;5065;46.942;7.432;2023-05-10T12:07:26;18.90;99.90
10051;DHT22;5065;46.942;7.432;2023-05-10T12:10:06;19.00;99.90
10051;DHT22;5065;46.942;7.432;2023-05-10T12:12:40;19.00;99.90
10051;DHT22;5065;46.942;7.432;2023-05-10T12:15:12;19.10;99.90
10051;DHT22;5065;46.942;7.432;2023-05-10T12:17:40;19.10;99.90
10051;DHT22;5065;46.942;7.432;2023-05-10T12:20:14;19.20;99.90
10051;DHT22;5065;46.942;7.432;2023-05-10T12:22:47;19.20;99.90
10051;DHT22;5065;46.942;7.432;2023-05-10T12:25:21;19.30;99.90
10051;DHT22;5065;46.942;7.432;2023-05-10T12:27:50;19.30;99.90
10051;DHT22;5065;46.942;7.432;2023-05-10T12:30:22;19.20;99.90
10051;DHT22;5065;46.942;7.432;2023-05-10T12:32:50;19.20;99.90
10051;DHT22;5065;46.942;7.432;2023-05-10T12:35:18;19.10;99.90
10051;DHT22;5065;46.942;7.432;2023-05-10T12:37:47;19.10;99.90
10051;DHT22;5065;46.942;7.432;2023-05-10T12:40:15;19.10;99.90
10051;DHT22;5065;46.942;7.432;2023-05-10T12:42:43;19.00;99.90
10051;DHT22;5065;46.942;7.432;2023-05-10T12:45:11;19.00;99.90
10051;DHT22;5065;46.942;7.432;2023-05-10T12:47:38;19.00;99.90
10051;DHT22;5065;46.942;7.432;2023-05-10T12:50:06;18.90;99.90
10051;DHT22;5065;46.942;7.432;2023-05-10T12:52:33;18.90;99.90
10051;DHT22;5065;46.942;7.432;2023-05-10T12:55:01;18.80;99.90
10051;DHT22;5065;46.942;7.432;2023-05-10T12:57:29;18.80;99.90
10051;DHT22;5065;46.942;7.432;2023-05-10T12:59:57;18.80;99.90
10051;DHT22;5065;46.942;7.432;2023-05-10T13:02:24;18.80;99.90
10051;DHT22;5065;46.942;7.432;2023-05-10T13:04:53;18.70;99.90
10051;DHT22;5065;46.942;7.432;2023-05-10T13:07:20;18.70;99.90
10051;DHT22;5065;46.942;7.432;2023-05-10T13:09:47;18.50;99.90
10051;DHT22;5065;46.942;7.432;2023-05-10T13:12:14;18.30;99.90
10051;DHT22;5065;46.942;7.432;2023-05-10T13:14:42;18.10;99.90
10051;DHT22;5065;46.942;7.432;2023-05-10T13:17:11;17.90;99.90
10051;DHT22;5065;46.942;7.432;2023-05-10T13:19:38;17.70;99.90
10051;DHT22;5065;46.942;7.432;2023-05-10T13:22:06;17.60;99.90
10051;DHT22;5065;46.942;7.432;2023-05-10T13:24:34;17.40;99.90
10051;DHT22;5065;46.942;7.432;2023-05-10T13:27:01;17.10;99.90
10051;DHT22;5065;46.942;7.432;2023-05-10T13:29:29;17.00;99.90
10051;DHT22;5065;46.942;7.432;2023-05-10T13:31:58;16.90;99.90
10051;DHT22;5065;46.942;7.432;2023-05-10T13:34:28;16.80;99.90
10051;DHT22;5065;46.942;7.432;2023-05-10T13:36:55;16.80;99.90
10051;DHT22;5065;46.942;7.432;2023-05-10T13:39:23;16.80;99.90
10051;DHT22;5065;46.942;7.432;2023-05-10T13:41:50;16.80;99.90
10051;DHT22;5065;46.942;7.432;2023-05-10T13:44:19;17.00;99.90
10051;DHT22;5065;46.942;7.432;2023-05-10T13:46:47;17.10;99.90
10051;DHT22;5065;46.942;7.432;2023-05-10T13:49:15;17.10;99.90
10051;DHT22;5065;46.942;7.432;2023-05-10T13:51:44;17.20;99.90
10051;DHT22;5065;46.942;7.432;2023-05-10T13:54:12;17.40;99.90
10051;DHT22;5065;46.942;7.432;2023-05-10T13:56:39;17.40;99.90
10051;DHT22;5065;46.942;7.432;2023-05-10T13:59:08;17.60;99.90
10051;DHT22;5065;46.942;7.432;2023-05-10T14:01:36;17.60;99.90
10051;DHT22;5065;46.942;7.432;2023-05-10T14:04:04;17.70;99.90
10051;DHT22;5065;46.942;7.432;2023-05-10T14:06:31;17.80;99.90
10051;DHT22;5065;46.942;7.432;2023-05-10T14:08:59;17.80;99.90
10051;DHT22;5065;46.942;7.432;2023-05-10T14:11:26;17.90;99.90
10051;DHT22;5065;46.942;7.432;2023-05-10T14:13:54;18.00;99.90
10051;DHT22;5065;46.942;7.432;2023-05-10T14:16:21;18.00;99.90
10051;DHT22;5065;46.942;7.432;2023-05-10T14:18:48;18.00;99.90
10051;DHT22;5065;46.942;7.432;2023-05-10T14:21:16;18.00;99.90
10051;DHT22;5065;46.942;7.432;2023-05-10T14:23:43;18.00;99.90
10051;DHT22;5065;46.942;7.432;2023-05-10T14:26:12;18.00;99.90
10051;DHT22;5065;46.942;7.432;2023-05-10T14:28:39;18.00;99.90
10051;DHT22;5065;46.942;7.432;2023-05-10T14:31:06;17.90;99.90
10051;DHT22;5065;46.942;7.432;2023-05-10T14:33:33;17.90;99.90
10051;DHT22;5065;46.942;7.432;2023-05-10T14:36:00;17.80;99.90
10051;DHT22;5065;46.942;7.432;2023-05-10T14:38:29;17.80;99.90
10051;DHT22;5065;46.942;7.432;2023-05-10T14:40:56;17.80;99.90
10051;DHT22;5065;46.942;7.432;2023-05-10T14:43:25;17.70;99.90
10051;DHT22;5065;46.942;7.432;2023-05-10T14:45:53;17.70;99.90
10051;DHT22;5065;46.942;7.432;2023-05-10T14:48:21;17.60;99.90
10051;DHT22;5065;46.942;7.432;2023-05-10T14:50:48;17.60;99.90
10051;DHT22;5065;46.942;7.432;2023-05-10T14:53:18;17.60;99.90
10051;DHT22;5065;46.942;7.432;2023-05-10T14:55:45;17.60;99.90
10051;DHT22;5065;46.942;7.432;2023-05-10T14:58:12;17.70;99.90
10051;DHT22;5065;46.942;7.432;2023-05-10T15:00:41;17.70;99.90
10051;DHT22;5065;46.942;7.432;2023-05-10T15:03:09;17.70;99.90
10051;DHT22;5065;46.942;7.432;2023-05-10T15:05:36;17.80;99.90
10051;DHT22;5065;46.942;7.432;2023-05-10T15:08:03;17.80;99.90
10051;DHT22;5065;46.942;7.432;2023-05-10T15:10:31;17.80;99.90
10051;DHT22;5065;46.942;7.432;2023-05-10T15:12:59;17.80;99.90
10051;DHT22;5065;46.942;7.432;2023-05-10T15:15:26;17.90;99.90
10051;DHT22;5065;46.942;7.432;2023-05-10T15:17:55;18.00;99.90
10051;DHT22;5065;46.942;7.432;2023-05-10T15:20:22;18.00;99.90
10051;DHT22;5065;46.942;7.432;2023-05-10T15:22:49;18.10;99.90
10051;DHT22;5065;46.942;7.432;2023-05-10T15:25:16;18.20;99.90
10051;DHT22;5065;46.942;7.432;2023-05-10T15:27:44;18.20;99.90
10051;DHT22;5065;46.942;7.432;2023-05-10T15:30:12;18.10;99.90
10051;DHT22;5065;46.942;7.432;2023-05-10T15:32:39;18.10;99.90
10051;DHT22;5065;46.942;7.432;2023-05-10T15:35:08;18.10;99.90
10051;DHT22;5065;46.942;7.432;2023-05-10T15:37:37;18.10;99.90
10051;DHT22;5065;46.942;7.432;2023-05-10T15:40:06;18.10;99.90
10051;DHT22;5065;46.942;7.432;2023-05-10T15:42:33;18.00;99.90
10051;DHT22;5065;46.942;7.432;2023-05-10T15:45:00;18.00;99.90
10051;DHT22;5065;46.942;7.432;2023-05-10T15:47:30;18.00;99.90
10051;DHT22;5065;46.942;7.432;2023-05-10T15:49:57;17.90;99.90
10051;DHT22;5065;46.942;7.432;2023-05-10T15:52:26;17.90;99.90
10051;DHT22;5065;46.942;7.432;2023-05-10T15:54:53;17.90;99.90
10051;DHT22;5065;46.942;7.432;2023-05-10T15:57:20;17.80;99.90
10051;DHT22;5065;46.942;7.432;2023-05-10T15:59:47;17.80;99.90